sensor_id;sensor_type;location;lat;lon;timestamp;P1;durP1;ratioP1;P2;durP2;ratioP2
31206;SDS011;17834;52.992;8.856;2023-02-01T00:00:19;18.02;;;3.17;;
31206;SDS011;17834;52.992;8.856;2023-02-01T00:02:45;13.85;;;2.35;;
31206;SDS011;17834;52.992;8.856;2023-02-01T00:05:11;19.63;;;2.65;;
31206;SDS011;17834;52.992;8.856;2023-02-01T00:07:37;13.70;;;2.63;;
31206;SDS011;17834;52.992;8.856;2023-02-01T00:10:04;19.15;;;4.22;;
31206;SDS011;17834;52.992;8.856;2023-02-01T00:12:30;14.52;;;2.85;;
31206;SDS011;17834;52.992;8.856;2023-02-01T00:14:56;14.80;;;2.95;;
31206;SDS011;17834;52.992;8.856;2023-02-01T00:17:22;13.50;;;3.05;;
31206;SDS011;17834;52.992;8.856;2023-02-01T00:19:48;12.30;;;2.67;;
31206;SDS011;17834;52.992;8.856;2023-02-01T00:22:14;12.82;;;3.38;;
31206;SDS011;17834;52.992;8.856;2023-02-01T00:24:40;14.80;;;2.53;;
31206;SDS011;17834;52.992;8.856;2023-02-01T00:27:06;19.65;;;2.80;;
31206;SDS011;17834;52.992;8.856;2023-02-01T00:29:32;17.80;;;3.17;;
31206;SDS011;17834;52.992;8.856;2023-02-01T00:31:58;17.70;;;2.65;;
31206;SDS011;17834;52.992;8.856;2023-02-01T00:34:24;18.55;;;2.58;;
31206;SDS011;17834;52.992;8.856;2023-02-01T00:36:50;23.15;;;3.38;;
31206;SDS011;17834;52.992;8.856;2023-02-01T00:39:16;22.73;;;2.85;;
31206;SDS011;17834;52.992;8.856;2023-02-01T00:41:42;13.05;;;2.47;;
31206;SDS011;17834;52.992;8.856;2023-02-01T00:44:08;20.38;;;2.92;;
31206;SDS011;17834;52.992;8.856;2023-02-01T00:46:34;10.32;;;2.78;;
31206;SDS011;17834;52.992;8.856;2023-02-01T00:49:00;23.23;;;3.25;;
31206;SDS011;17834;52.992;8.856;2023-02-01T00:51:27;12.30;;;2.60;;
31206;SDS011;17834;52.992;8.856;2023-02-01T00:53:53;21.52;;;3.00;;
31206;SDS011;17834;52.992;8.856;2023-02-01T00:56:19;18.52;;;2.72;;
31206;SDS011;17834;52.992;8.856;2023-02-01T00:58:45;18.92;;;2.88;;
31206;SDS011;17834;52.992;8.856;2023-02-01T01:01:12;17.75;;;3.33;;
31206;SDS011;17834;52.992;8.856;2023-02-01T01:03:40;18.10;;;4.10;;
31206;SDS011;17834;52.992;8.856;2023-02-01T01:06:11;14.48;;;2.80;;
31206;SDS011;17834;52.992;8.856;2023-02-01T01:08:37;15.88;;;3.05;;
31206;SDS011;17834;52.992;8.856;2023-02-01T01:11:07;18.95;;;3.22;;
31206;SDS011;17834;52.992;8.856;2023-02-01T01:13:34;16.33;;;2.78;;
31206;SDS011;17834;52.992;8.856;2023-02-01T01:16:01;11.05;;;2.58;;
31206;SDS011;17834;52.992;8.856;2023-02-01T01:18:27;15.55;;;3.30;;
31206;SDS011;17834;52.992;8.856;2023-02-01T01:20:54;17.33;;;3.00;;
31206;SDS011;17834;52.992;8.856;2023-02-01T01:23:20;13.82;;;2.47;;
31206;SDS011;17834;52.992;8.856;2023-02-01T01:25:46;26.35;;;3.40;;
31206;SDS011;17834;52.992;8.856;2023-02-01T01:28:12;19.00;;;2.75;;
31206;SDS011;17834;52.992;8.856;2023-02-01T01:30:38;17.45;;;2.72;;
31206;SDS011;17834;52.992;8.856;2023-02-01T01:33:04;21.02;;;3.33;;
31206;SDS011;17834;52.992;8.856;2023-02-01T01:35:30;14.98;;;2.17;;
31206;SDS011;17834;52.992;8.856;2023-02-01T01:37:56;20.73;;;2.33;;
31206;SDS011;17834;52.992;8.856;2023-02-01T01:40:22;21.48;;;3.50;;
31206;SDS011;17834;52.992;8.856;2023-02-01T01:42:48;14.55;;;2.10;;
31206;SDS011;17834;52.992;8.856;2023-02-01T01:45:20;19.05;;;2.90;;
31206;SDS011;17834;52.992;8.856;2023-02-01T01:47:48;15.38;;;2.38;;
31206;SDS011;17834;52.992;8.856;2023-02-01T01:50:16;12.00;;;3.42;;
31206;SDS011;17834;52.992;8.856;2023-02-01T01:52:44;12.57;;;2.88;;
31206;SDS011;17834;52.992;8.856;2023-02-01T01:55:13;11.27;;;2.22;;
31206;SDS011;17834;52.992;8.856;2023-02-01T01:57:39;16.85;;;3.47;;
31206;SDS011;17834;52.992;8.856;2023-02-01T02:00:13;13.70;;;4.18;;
31206;SDS011;17834;52.992;8.856;2023-02-01T02:02:40;14.75;;;2.72;;
31206;SDS011;17834;52.992;8.856;2023-02-01T02:05:06;16.65;;;2.83;;
31206;SDS011;17834;52.992;8.856;2023-02-01T02:07:34;9.52;;;2.33;;
31206;SDS011;17834;52.992;8.856;2023-02-01T02:10:04;20.58;;;3.20;;
31206;SDS011;17834;52.992;8.856;2023-02-01T02:12:31;16.38;;;4.80;;
31206;SDS011;17834;52.992;8.856;2023-02-01T02:14:57;13.05;;;2.60;;
31206;SDS011;17834;52.992;8.856;2023-02-01T02:17:36;17.80;;;3.40;;
31206;SDS011;17834;52.992;8.856;2023-02-01T02:22:45;12.00;;;2.78;;
31206;SDS011;17834;52.992;8.856;2023-02-01T02:35:48;18.77;;;3.22;;
31206;SDS011;17834;52.992;8.856;2023-02-01T02:38:26;22.02;;;3.05;;
31206;SDS011;17834;52.992;8.856;2023-02-01T02:41:05;19.50;;;3.17;;
31206;SDS011;17834;52.992;8.856;2023-02-01T02:43:48;13.05;;;2.92;;
31206;SDS011;17834;52.992;8.856;2023-02-01T02:46:36;22.02;;;3.10;;
31206;SDS011;17834;52.992;8.856;2023-02-01T02:49:32;18.60;;;3.25;;
31206;SDS011;17834;52.992;8.856;2023-02-01T02:52:04;8.07;;;2.88;;
31206;SDS011;17834;52.992;8.856;2023-02-01T02:54:53;14.90;;;2.88;;
31206;SDS011;17834;52.992;8.856;2023-02-01T02:57:24;22.83;;;3.03;;
31206;SDS011;17834;52.992;8.856;2023-02-01T03:00:11;16.65;;;2.50;;
31206;SDS011;17834;52.992;8.856;2023-02-01T03:02:56;14.73;;;3.78;;
31206;SDS011;17834;52.992;8.856;2023-02-01T03:05:43;13.90;;;3.10;;
31206;SDS011;17834;52.992;8.856;2023-02-01T03:08:13;17.52;;;2.85;;
31206;SDS011;17834;52.992;8.856;2023-02-01T03:13:07;13.65;;;2.40;;
31206;SDS011;17834;52.992;8.856;2023-02-01T03:15:36;14.00;;;2.80;;
31206;SDS011;17834;52.992;8.856;2023-02-01T03:18:05;20.00;;;2.97;;
31206;SDS011;17834;52.992;8.856;2023-02-01T03:20:34;14.23;;;2.88;;
31206;SDS011;17834;52.992;8.856;2023-02-01T03:23:00;22.00;;;2.83;;
31206;SDS011;17834;52.992;8.856;2023-02-01T03:25:29;17.00;;;2.83;;
31206;SDS011;17834;52.992;8.856;2023-02-01T03:28:06;14.52;;;2.42;;
31206;SDS011;17834;52.992;8.856;2023-02-01T03:30:34;10.00;;;2.38;;
31206;SDS011;17834;52.992;8.856;2023-02-01T03:33:02;16.80;;;2.85;;
31206;SDS011;17834;52.992;8.856;2023-02-01T03:35:33;17.48;;;3.08;;
31206;SDS011;17834;52.992;8.856;2023-02-01T03:38:20;11.75;;;3.03;;
31206;SDS011;17834;52.992;8.856;2023-02-01T03:40:48;17.00;;;3.28;;
31206;SDS011;17834;52.992;8.856;2023-02-01T03:43:16;28.05;;;3.40;;
31206;SDS011;17834;52.992;8.856;2023-02-01T03:45:45;11.00;;;2.70;;
31206;SDS011;17834;52.992;8.856;2023-02-01T03:48:13;15.85;;;2.95;;
31206;SDS011;17834;52.992;8.856;2023-02-01T03:50:43;14.38;;;2.67;;
31206;SDS011;17834;52.992;8.856;2023-02-01T03:53:11;17.63;;;3.10;;
31206;SDS011;17834;52.992;8.856;2023-02-01T03:55:40;28.63;;;3.03;;
31206;SDS011;17834;52.992;8.856;2023-02-01T03:58:14;18.45;;;2.85;;
31206;SDS011;17834;52.992;8.856;2023-02-01T04:00:43;18.05;;;3.38;;
31206;SDS011;17834;52.992;8.856;2023-02-01T04:03:09;15.73;;;2.85;;
31206;SDS011;17834;52.992;8.856;2023-02-01T04:05:35;11.38;;;2.75;;
31206;SDS011;17834;52.992;8.856;2023-02-01T04:08:02;14.50;;;2.42;;
31206;SDS011;17834;52.992;8.856;2023-02-01T04:10:29;14.70;;;3.00;;
31206;SDS011;17834;52.992;8.856;2023-02-01T04:12:55;11.98;;;3.00;;
31206;SDS011;17834;52.992;8.856;2023-02-01T04:15:21;17.10;;;3.00;;
31206;SDS011;17834;52.992;8.856;2023-02-01T04:17:47;21.50;;;4.00;;
31206;SDS011;17834;52.992;8.856;2023-02-01T04:20:13;15.68;;;3.95;;
31206;SDS011;17834;52.992;8.856;2023-02-01T04:22:39;9.13;;;2.67;;
31206;SDS011;17834;52.992;8.856;2023-02-01T04:25:05;14.70;;;3.10;;
31206;SDS011;17834;52.992;8.856;2023-02-01T04:27:32;16.17;;;3.28;;
31206;SDS011;17834;52.992;8.856;2023-02-01T04:29:58;11.90;;;3.22;;
31206;SDS011;17834;52.992;8.856;2023-02-01T04:32:24;9.18;;;2.30;;
31206;SDS011;17834;52.992;8.856;2023-02-01T04:34:50;14.63;;;3.22;;
31206;SDS011;17834;52.992;8.856;2023-02-01T04:37:16;12.82;;;2.50;;
31206;SDS011;17834;52.992;8.856;2023-02-01T04:39:42;14.98;;;3.33;;
31206;SDS011;17834;52.992;8.856;2023-02-01T04:42:08;12.90;;;3.13;;
31206;SDS011;17834;52.992;8.856;2023-02-01T04:44:34;14.05;;;3.50;;
31206;SDS011;17834;52.992;8.856;2023-02-01T04:47:02;17.65;;;3.10;;
31206;SDS011;17834;52.992;8.856;2023-02-01T04:49:28;12.52;;;3.80;;
31206;SDS011;17834;52.992;8.856;2023-02-01T04:51:54;16.42;;;3.17;;
31206;SDS011;17834;52.992;8.856;2023-02-01T04:54:19;15.18;;;3.90;;
31206;SDS011;17834;52.992;8.856;2023-02-01T04:56:46;17.67;;;3.25;;
31206;SDS011;17834;52.992;8.856;2023-02-01T04:59:12;18.88;;;3.75;;
31206;SDS011;17834;52.992;8.856;2023-02-01T05:01:38;12.65;;;3.03;;
31206;SDS011;17834;52.992;8.856;2023-02-01T05:04:04;14.52;;;3.63;;
31206;SDS011;17834;52.992;8.856;2023-02-01T05:06:30;22.45;;;4.18;;
31206;SDS011;17834;52.992;8.856;2023-02-01T05:08:56;19.42;;;4.22;;
31206;SDS011;17834;52.992;8.856;2023-02-01T05:11:21;10.15;;;3.00;;
31206;SDS011;17834;52.992;8.856;2023-02-01T05:14:06;12.57;;;3.65;;
31206;SDS011;17834;52.992;8.856;2023-02-01T05:16:32;12.57;;;2.95;;
31206;SDS011;17834;52.992;8.856;2023-02-01T05:18:58;12.32;;;3.42;;
31206;SDS011;17834;52.992;8.856;2023-02-01T05:21:24;14.13;;;4.00;;
31206;SDS011;17834;52.992;8.856;2023-02-01T05:23:50;15.15;;;3.38;;
31206;SDS011;17834;52.992;8.856;2023-02-01T05:26:39;21.33;;;4.97;;
31206;SDS011;17834;52.992;8.856;2023-02-01T05:29:05;13.02;;;3.80;;
31206;SDS011;17834;52.992;8.856;2023-02-01T05:31:31;19.77;;;3.70;;
31206;SDS011;17834;52.992;8.856;2023-02-01T05:33:57;16.48;;;3.88;;
31206;SDS011;17834;52.992;8.856;2023-02-01T05:36:23;11.63;;;3.30;;
31206;SDS011;17834;52.992;8.856;2023-02-01T05:38:49;20.13;;;3.65;;
31206;SDS011;17834;52.992;8.856;2023-02-01T05:41:15;16.00;;;3.97;;
31206;SDS011;17834;52.992;8.856;2023-02-01T05:43:41;17.13;;;3.78;;
31206;SDS011;17834;52.992;8.856;2023-02-01T05:46:07;10.18;;;3.95;;
31206;SDS011;17834;52.992;8.856;2023-02-01T05:48:35;15.32;;;3.03;;
31206;SDS011;17834;52.992;8.856;2023-02-01T05:51:01;10.45;;;2.88;;
31206;SDS011;17834;52.992;8.856;2023-02-01T05:53:27;15.43;;;2.60;;
31206;SDS011;17834;52.992;8.856;2023-02-01T05:55:53;17.30;;;3.20;;
31206;SDS011;17834;52.992;8.856;2023-02-01T05:58:19;7.70;;;3.63;;
31206;SDS011;17834;52.992;8.856;2023-02-01T06:00:45;18.20;;;2.45;;
31206;SDS011;17834;52.992;8.856;2023-02-01T06:03:11;9.30;;;2.25;;
31206;SDS011;17834;52.992;8.856;2023-02-01T06:05:37;7.05;;;2.25;;
31206;SDS011;17834;52.992;8.856;2023-02-01T06:08:03;7.88;;;2.15;;
31206;SDS011;17834;52.992;8.856;2023-02-01T06:10:29;10.13;;;2.95;;
31206;SDS011;17834;52.992;8.856;2023-02-01T06:12:55;10.75;;;2.40;;
31206;SDS011;17834;52.992;8.856;2023-02-01T06:15:21;9.32;;;3.00;;
31206;SDS011;17834;52.992;8.856;2023-02-01T06:17:47;6.47;;;2.28;;
31206;SDS011;17834;52.992;8.856;2023-02-01T06:20:13;13.07;;;3.03;;
31206;SDS011;17834;52.992;8.856;2023-02-01T06:22:40;15.07;;;2.83;;
31206;SDS011;17834;52.992;8.856;2023-02-01T06:25:06;9.93;;;3.10;;
31206;SDS011;17834;52.992;8.856;2023-02-01T06:27:33;20.00;;;3.35;;
31206;SDS011;17834;52.992;8.856;2023-02-01T06:29:59;16.55;;;4.03;;
31206;SDS011;17834;52.992;8.856;2023-02-01T06:32:25;15.07;;;3.50;;
31206;SDS011;17834;52.992;8.856;2023-02-01T06:34:51;23.30;;;4.22;;
31206;SDS011;17834;52.992;8.856;2023-02-01T06:37:17;24.45;;;3.28;;
31206;SDS011;17834;52.992;8.856;2023-02-01T06:39:43;14.90;;;3.75;;
31206;SDS011;17834;52.992;8.856;2023-02-01T06:42:09;15.40;;;4.07;;
31206;SDS011;17834;52.992;8.856;2023-02-01T06:44:35;21.63;;;3.63;;
31206;SDS011;17834;52.992;8.856;2023-02-01T06:47:02;15.82;;;2.70;;
31206;SDS011;17834;52.992;8.856;2023-02-01T06:49:28;9.90;;;3.10;;
31206;SDS011;17834;52.992;8.856;2023-02-01T06:51:54;11.10;;;2.92;;
31206;SDS011;17834;52.992;8.856;2023-02-01T06:54:20;12.38;;;3.25;;
31206;SDS011;17834;52.992;8.856;2023-02-01T06:56:46;13.95;;;2.80;;
31206;SDS011;17834;52.992;8.856;2023-02-01T06:59:12;10.07;;;2.58;;
31206;SDS011;17834;52.992;8.856;2023-02-01T07:01:38;13.30;;;2.58;;
31206;SDS011;17834;52.992;8.856;2023-02-01T07:04:04;16.75;;;2.83;;
31206;SDS011;17834;52.992;8.856;2023-02-01T07:06:30;9.18;;;2.35;;
31206;SDS011;17834;52.992;8.856;2023-02-01T07:08:56;13.45;;;2.90;;
31206;SDS011;17834;52.992;8.856;2023-02-01T07:11:23;13.75;;;2.65;;
31206;SDS011;17834;52.992;8.856;2023-02-01T07:13:49;11.70;;;2.90;;
31206;SDS011;17834;52.992;8.856;2023-02-01T07:16:16;13.85;;;2.10;;
31206;SDS011;17834;52.992;8.856;2023-02-01T07:18:42;10.45;;;2.65;;
31206;SDS011;17834;52.992;8.856;2023-02-01T07:21:09;14.05;;;2.83;;
31206;SDS011;17834;52.992;8.856;2023-02-01T07:23:35;11.98;;;2.75;;
31206;SDS011;17834;52.992;8.856;2023-02-01T07:26:01;15.60;;;3.13;;
31206;SDS011;17834;52.992;8.856;2023-02-01T07:28:28;12.40;;;3.47;;
31206;SDS011;17834;52.992;8.856;2023-02-01T07:30:55;13.30;;;2.83;;
31206;SDS011;17834;52.992;8.856;2023-02-01T07:33:21;13.50;;;3.22;;
31206;SDS011;17834;52.992;8.856;2023-02-01T07:35:48;15.35;;;3.53;;
31206;SDS011;17834;52.992;8.856;2023-02-01T07:38:14;19.65;;;3.53;;
31206;SDS011;17834;52.992;8.856;2023-02-01T07:40:40;15.57;;;3.15;;
31206;SDS011;17834;52.992;8.856;2023-02-01T07:43:06;20.50;;;3.80;;
31206;SDS011;17834;52.992;8.856;2023-02-01T07:45:33;10.85;;;2.67;;
31206;SDS011;17834;52.992;8.856;2023-02-01T07:47:59;20.65;;;4.63;;
31206;SDS011;17834;52.992;8.856;2023-02-01T07:50:25;11.77;;;2.50;;
31206;SDS011;17834;52.992;8.856;2023-02-01T07:52:51;19.48;;;3.78;;
31206;SDS011;17834;52.992;8.856;2023-02-01T07:55:18;14.15;;;3.03;;
31206;SDS011;17834;52.992;8.856;2023-02-01T07:57:44;17.95;;;3.28;;
31206;SDS011;17834;52.992;8.856;2023-02-01T08:00:10;21.77;;;3.40;;
31206;SDS011;17834;52.992;8.856;2023-02-01T08:02:57;11.85;;;2.53;;
31206;SDS011;17834;52.992;8.856;2023-02-01T08:05:23;10.02;;;2.58;;
31206;SDS011;17834;52.992;8.856;2023-02-01T08:07:49;19.05;;;3.08;;
31206;SDS011;17834;52.992;8.856;2023-02-01T08:10:16;8.75;;;2.50;;
31206;SDS011;17834;52.992;8.856;2023-02-01T08:12:42;12.35;;;2.67;;
31206;SDS011;17834;52.992;8.856;2023-02-01T08:15:12;11.98;;;2.50;;
31206;SDS011;17834;52.992;8.856;2023-02-01T08:17:38;18.90;;;3.35;;
31206;SDS011;17834;52.992;8.856;2023-02-01T08:20:04;16.60;;;4.00;;
31206;SDS011;17834;52.992;8.856;2023-02-01T08:22:33;12.00;;;2.90;;
31206;SDS011;17834;52.992;8.856;2023-02-01T08:24:59;18.10;;;2.28;;
31206;SDS011;17834;52.992;8.856;2023-02-01T08:27:26;14.70;;;2.28;;
31206;SDS011;17834;52.992;8.856;2023-02-01T08:29:52;16.80;;;2.53;;
31206;SDS011;17834;52.992;8.856;2023-02-01T08:32:19;12.05;;;2.97;;
31206;SDS011;17834;52.992;8.856;2023-02-01T08:34:45;7.43;;;2.05;;
31206;SDS011;17834;52.992;8.856;2023-02-01T08:37:11;12.00;;;1.92;;
31206;SDS011;17834;52.992;8.856;2023-02-01T08:39:36;13.27;;;1.77;;
31206;SDS011;17834;52.992;8.856;2023-02-01T08:42:02;13.90;;;2.15;;
31206;SDS011;17834;52.992;8.856;2023-02-01T08:44:47;12.85;;;2.25;;
31206;SDS011;17834;52.992;8.856;2023-02-01T08:47:13;12.35;;;3.92;;
31206;SDS011;17834;52.992;8.856;2023-02-01T08:49:39;12.07;;;2.72;;
31206;SDS011;17834;52.992;8.856;2023-02-01T08:52:05;11.82;;;2.30;;
31206;SDS011;17834;52.992;8.856;2023-02-01T08:54:31;8.88;;;2.42;;
31206;SDS011;17834;52.992;8.856;2023-02-01T08:56:57;18.58;;;4.05;;
31206;SDS011;17834;52.992;8.856;2023-02-01T08:59:22;13.05;;;2.47;;
31206;SDS011;17834;52.992;8.856;2023-02-01T09:01:48;7.88;;;2.40;;
31206;SDS011;17834;52.992;8.856;2023-02-01T09:04:14;8.82;;;2.38;;
31206;SDS011;17834;52.992;8.856;2023-02-01T09:06:41;12.35;;;2.33;;
31206;SDS011;17834;52.992;8.856;2023-02-01T09:09:07;14.18;;;2.50;;
31206;SDS011;17834;52.992;8.856;2023-02-01T09:11:33;8.75;;;2.05;;
31206;SDS011;17834;52.992;8.856;2023-02-01T09:13:59;15.48;;;3.10;;
31206;SDS011;17834;52.992;8.856;2023-02-01T09:16:25;17.13;;;2.88;;
31206;SDS011;17834;52.992;8.856;2023-02-01T09:18:51;8.25;;;1.73;;
31206;SDS011;17834;52.992;8.856;2023-02-01T09:21:17;23.40;;;3.10;;
31206;SDS011;17834;52.992;8.856;2023-02-01T09:23:43;12.30;;;2.45;;
31206;SDS011;17834;52.992;8.856;2023-02-01T09:26:09;19.17;;;2.45;;
31206;SDS011;17834;52.992;8.856;2023-02-01T09:28:36;12.95;;;3.60;;
31206;SDS011;17834;52.992;8.856;2023-02-01T09:31:02;17.35;;;2.40;;
31206;SDS011;17834;52.992;8.856;2023-02-01T09:33:28;10.75;;;2.72;;
31206;SDS011;17834;52.992;8.856;2023-02-01T09:35:55;13.32;;;3.05;;
31206;SDS011;17834;52.992;8.856;2023-02-01T09:38:21;4.95;;;1.98;;
31206;SDS011;17834;52.992;8.856;2023-02-01T09:40:47;12.75;;;2.10;;
31206;SDS011;17834;52.992;8.856;2023-02-01T09:43:17;9.55;;;2.60;;
31206;SDS011;17834;52.992;8.856;2023-02-01T09:48:17;11.63;;;3.00;;
31206;SDS011;17834;52.992;8.856;2023-02-01T09:50:46;22.45;;;2.63;;
31206;SDS011;17834;52.992;8.856;2023-02-01T09:53:32;24.50;;;2.90;;
31206;SDS011;17834;52.992;8.856;2023-02-01T09:56:00;12.05;;;2.72;;
31206;SDS011;17834;52.992;8.856;2023-02-01T10:01:01;11.65;;;2.95;;
31206;SDS011;17834;52.992;8.856;2023-02-01T10:03:29;10.70;;;2.30;;
31206;SDS011;17834;52.992;8.856;2023-02-01T10:11:25;11.48;;;2.67;;
31206;SDS011;17834;52.992;8.856;2023-02-01T10:14:06;15.88;;;2.50;;
31206;SDS011;17834;52.992;8.856;2023-02-01T10:21:54;17.83;;;2.85;;
31206;SDS011;17834;52.992;8.856;2023-02-01T10:24:37;9.85;;;2.08;;
31206;SDS011;17834;52.992;8.856;2023-02-01T10:27:11;21.20;;;2.72;;
31206;SDS011;17834;52.992;8.856;2023-02-01T10:29:38;17.00;;;2.72;;
31206;SDS011;17834;52.992;8.856;2023-02-01T10:32:12;10.55;;;1.83;;
31206;SDS011;17834;52.992;8.856;2023-02-01T10:34:39;14.90;;;2.83;;
31206;SDS011;17834;52.992;8.856;2023-02-01T10:37:16;14.43;;;2.40;;
31206;SDS011;17834;52.992;8.856;2023-02-01T10:39:45;11.10;;;2.80;;
31206;SDS011;17834;52.992;8.856;2023-02-01T10:42:12;9.40;;;2.00;;
31206;SDS011;17834;52.992;8.856;2023-02-01T10:44:40;7.90;;;2.60;;
31206;SDS011;17834;52.992;8.856;2023-02-01T10:47:09;13.90;;;1.90;;
31206;SDS011;17834;52.992;8.856;2023-02-01T10:49:41;7.35;;;2.25;;
31206;SDS011;17834;52.992;8.856;2023-02-01T10:54:36;13.73;;;2.83;;
31206;SDS011;17834;52.992;8.856;2023-02-01T10:57:25;16.38;;;2.72;;
31206;SDS011;17834;52.992;8.856;2023-02-01T10:59:54;16.88;;;2.97;;
31206;SDS011;17834;52.992;8.856;2023-02-01T11:04:46;11.80;;;2.38;;
31206;SDS011;17834;52.992;8.856;2023-02-01T11:07:16;17.35;;;2.67;;
31206;SDS011;17834;52.992;8.856;2023-02-01T11:09:42;8.93;;;2.67;;
31206;SDS011;17834;52.992;8.856;2023-02-01T11:12:33;11.63;;;2.47;;
31206;SDS011;17834;52.992;8.856;2023-02-01T11:15:14;16.17;;;2.67;;
31206;SDS011;17834;52.992;8.856;2023-02-01T11:17:43;12.63;;;2.25;;
31206;SDS011;17834;52.992;8.856;2023-02-01T11:20:17;11.98;;;2.25;;
31206;SDS011;17834;52.992;8.856;2023-02-01T11:23:01;6.00;;;2.28;;
31206;SDS011;17834;52.992;8.856;2023-02-01T11:25:27;16.58;;;3.08;;
31206;SDS011;17834;52.992;8.856;2023-02-01T11:27:54;13.25;;;2.40;;
31206;SDS011;17834;52.992;8.856;2023-02-01T11:30:34;6.85;;;1.77;;
31206;SDS011;17834;52.992;8.856;2023-02-01T11:33:03;8.18;;;2.20;;
31206;SDS011;17834;52.992;8.856;2023-02-01T11:35:30;8.13;;;2.70;;
31206;SDS011;17834;52.992;8.856;2023-02-01T11:37:57;9.13;;;1.95;;
31206;SDS011;17834;52.992;8.856;2023-02-01T11:40:37;18.67;;;2.25;;
31206;SDS011;17834;52.992;8.856;2023-02-01T11:43:23;10.02;;;3.05;;
31206;SDS011;17834;52.992;8.856;2023-02-01T11:45:57;8.25;;;1.90;;
31206;SDS011;17834;52.992;8.856;2023-02-01T11:48:23;7.63;;;2.17;;
31206;SDS011;17834;52.992;8.856;2023-02-01T11:53:40;15.45;;;2.08;;
31206;SDS011;17834;52.992;8.856;2023-02-01T12:14:13;8.25;;;2.28;;
31206;SDS011;17834;52.992;8.856;2023-02-01T12:16:55;7.30;;;1.85;;
31206;SDS011;17834;52.992;8.856;2023-02-01T12:19:37;5.53;;;1.88;;
31206;SDS011;17834;52.992;8.856;2023-02-01T12:22:15;4.75;;;1.60;;
31206;SDS011;17834;52.992;8.856;2023-02-01T12:32:40;4.10;;;0.95;;
31206;SDS011;17834;52.992;8.856;2023-02-01T12:35:13;0.73;;;0.70;;
31206;SDS011;17834;52.992;8.856;2023-02-01T12:40:26;6.30;;;1.10;;
31206;SDS011;17834;52.992;8.856;2023-02-01T12:45:46;1.27;;;0.70;;
31206;SDS011;17834;52.992;8.856;2023-02-01T12:50:55;0.95;;;0.70;;
31206;SDS011;17834;52.992;8.856;2023-02-01T12:55:54;0.75;;;0.65;;
31206;SDS011;17834;52.992;8.856;2023-02-01T12:58:25;1.98;;;0.90;;
31206;SDS011;17834;52.992;8.856;2023-02-01T13:00:55;1.88;;;0.80;;
31206;SDS011;17834;52.992;8.856;2023-02-01T13:03:34;2.05;;;0.70;;
31206;SDS011;17834;52.992;8.856;2023-02-01T13:06:04;1.90;;;0.80;;
31206;SDS011;17834;52.992;8.856;2023-02-01T13:08:43;0.90;;;0.60;;
31206;SDS011;17834;52.992;8.856;2023-02-01T13:11:22;4.47;;;1.20;;
31206;SDS011;17834;52.992;8.856;2023-02-01T13:13:59;0.98;;;0.63;;
31206;SDS011;17834;52.992;8.856;2023-02-01T13:16:37;0.90;;;0.70;;
31206;SDS011;17834;52.992;8.856;2023-02-01T13:19:13;3.00;;;0.85;;
31206;SDS011;17834;52.992;8.856;2023-02-01T13:21:43;2.50;;;0.73;;
31206;SDS011;17834;52.992;8.856;2023-02-01T13:24:29;3.45;;;1.02;;
31206;SDS011;17834;52.992;8.856;2023-02-01T13:26:56;1.27;;;0.90;;
31206;SDS011;17834;52.992;8.856;2023-02-01T13:29:23;3.13;;;1.10;;
31206;SDS011;17834;52.992;8.856;2023-02-01T13:31:58;1.58;;;1.10;;
31206;SDS011;17834;52.992;8.856;2023-02-01T13:37:16;3.75;;;1.13;;
31206;SDS011;17834;52.992;8.856;2023-02-01T13:40:07;11.45;;;1.88;;
31206;SDS011;17834;52.992;8.856;2023-02-01T13:45:22;6.38;;;1.15;;
31206;SDS011;17834;52.992;8.856;2023-02-01T13:47:52;5.55;;;1.50;;
31206;SDS011;17834;52.992;8.856;2023-02-01T13:50:27;3.45;;;1.00;;
31206;SDS011;17834;52.992;8.856;2023-02-01T13:52:56;5.43;;;1.27;;
31206;SDS011;17834;52.992;8.856;2023-02-01T13:55:32;5.38;;;1.08;;
31206;SDS011;17834;52.992;8.856;2023-02-01T13:58:09;6.40;;;1.42;;
31206;SDS011;17834;52.992;8.856;2023-02-01T14:00:37;2.70;;;1.42;;
31206;SDS011;17834;52.992;8.856;2023-02-01T14:23:44;2.85;;;1.15;;
31206;SDS011;17834;52.992;8.856;2023-02-01T14:26:56;6.90;;;1.40;;
31206;SDS011;17834;52.992;8.856;2023-02-01T14:29:02;9.77;;;2.00;;
31206;SDS011;17834;52.992;8.856;2023-02-01T14:31:49;7.57;;;1.45;;
31206;SDS011;17834;52.992;8.856;2023-02-01T14:34:29;10.77;;;1.40;;
31206;SDS011;17834;52.992;8.856;2023-02-01T14:36:58;8.68;;;2.83;;
31206;SDS011;17834;52.992;8.856;2023-02-01T14:39:27;7.40;;;1.48;;
31206;SDS011;17834;52.992;8.856;2023-02-01T14:41:56;11.30;;;1.73;;
31206;SDS011;17834;52.992;8.856;2023-02-01T14:44:24;7.10;;;1.50;;
31206;SDS011;17834;52.992;8.856;2023-02-01T14:47:10;8.73;;;1.75;;
31206;SDS011;17834;52.992;8.856;2023-02-01T14:49:42;12.43;;;2.63;;
31206;SDS011;17834;52.992;8.856;2023-02-01T14:52:13;10.90;;;2.28;;
31206;SDS011;17834;52.992;8.856;2023-02-01T14:54:39;15.88;;;3.10;;
31206;SDS011;17834;52.992;8.856;2023-02-01T14:57:10;21.67;;;2.22;;
31206;SDS011;17834;52.992;8.856;2023-02-01T14:59:39;12.25;;;3.15;;
31206;SDS011;17834;52.992;8.856;2023-02-01T15:02:10;11.18;;;2.42;;
31206;SDS011;17834;52.992;8.856;2023-02-01T15:04:41;16.20;;;2.40;;
31206;SDS011;17834;52.992;8.856;2023-02-01T15:07:07;13.75;;;2.17;;
31206;SDS011;17834;52.992;8.856;2023-02-01T15:09:38;24.75;;;2.90;;
31206;SDS011;17834;52.992;8.856;2023-02-01T15:17:21;16.13;;;2.58;;
31206;SDS011;17834;52.992;8.856;2023-02-01T15:19:54;20.13;;;2.28;;
31206;SDS011;17834;52.992;8.856;2023-02-01T15:22:20;21.40;;;2.65;;
31206;SDS011;17834;52.992;8.856;2023-02-01T15:24:51;17.02;;;3.47;;
31206;SDS011;17834;52.992;8.856;2023-02-01T15:27:18;17.83;;;2.72;;
31206;SDS011;17834;52.992;8.856;2023-02-01T15:29:44;19.13;;;3.20;;
31206;SDS011;17834;52.992;8.856;2023-02-01T15:34:56;21.85;;;2.67;;
31206;SDS011;17834;52.992;8.856;2023-02-01T15:37:22;12.90;;;3.42;;
31206;SDS011;17834;52.992;8.856;2023-02-01T15:42:33;14.27;;;2.97;;
31206;SDS011;17834;52.992;8.856;2023-02-01T15:44:59;14.10;;;2.00;;
31206;SDS011;17834;52.992;8.856;2023-02-01T15:47:26;12.57;;;2.35;;
31206;SDS011;17834;52.992;8.856;2023-02-01T15:49:54;10.73;;;2.38;;
31206;SDS011;17834;52.992;8.856;2023-02-01T15:52:39;12.40;;;2.67;;
31206;SDS011;17834;52.992;8.856;2023-02-01T15:55:06;12.82;;;2.08;;
31206;SDS011;17834;52.992;8.856;2023-02-01T15:57:36;19.08;;;2.88;;
31206;SDS011;17834;52.992;8.856;2023-02-01T16:00:06;17.13;;;3.75;;
31206;SDS011;17834;52.992;8.856;2023-02-01T16:04:59;23.45;;;3.05;;
31206;SDS011;17834;52.992;8.856;2023-02-01T16:07:32;20.73;;;2.78;;
31206;SDS011;17834;52.992;8.856;2023-02-01T16:09:59;23.15;;;3.47;;
31206;SDS011;17834;52.992;8.856;2023-02-01T16:15:06;11.13;;;2.83;;
31206;SDS011;17834;52.992;8.856;2023-02-01T16:17:32;21.35;;;3.35;;
31206;SDS011;17834;52.992;8.856;2023-02-01T16:19:58;11.27;;;1.55;;
31206;SDS011;17834;52.992;8.856;2023-02-01T16:22:24;10.88;;;1.63;;
31206;SDS011;17834;52.992;8.856;2023-02-01T16:24:50;6.90;;;1.50;;
31206;SDS011;17834;52.992;8.856;2023-02-01T16:27:16;9.15;;;2.00;;
31206;SDS011;17834;52.992;8.856;2023-02-01T16:29:42;5.00;;;1.38;;
31206;SDS011;17834;52.992;8.856;2023-02-01T16:32:18;9.80;;;1.83;;
31206;SDS011;17834;52.992;8.856;2023-02-01T16:34:45;14.38;;;1.92;;
31206;SDS011;17834;52.992;8.856;2023-02-01T16:37:16;17.05;;;2.30;;
31206;SDS011;17834;52.992;8.856;2023-02-01T16:39:42;10.63;;;2.63;;
31206;SDS011;17834;52.992;8.856;2023-02-01T16:42:10;9.50;;;1.55;;
31206;SDS011;17834;52.992;8.856;2023-02-01T16:44:36;7.93;;;1.95;;
31206;SDS011;17834;52.992;8.856;2023-02-01T16:47:02;7.90;;;1.83;;